createdAt,value
2024-03-16T00:01:25.909Z,11.6
2024-03-16T00:07:37.421Z,11.6
2024-03-16T00:09:41.276Z,11.6
2024-03-16T00:13:51.806Z,11.6
2024-03-16T00:26:17.813Z,11.5
2024-03-16T00:28:21.650Z,11.5
2024-03-16T00:32:29.402Z,11.5
2024-03-16T00:34:33.274Z,11.5
2024-03-16T00:36:37.117Z,11.5
2024-03-16T00:38:40.952Z,11.5
2024-03-16T00:40:47.663Z,11.4
2024-03-16T00:42:51.537Z,11.3
2024-03-16T00:44:55.374Z,11.2
2024-03-16T00:45:58.773Z,11
2024-03-16T00:52:10.307Z,10.9
2024-03-16T00:56:20.782Z,10.7
2024-03-16T00:58:24.633Z,10.6
2024-03-16T01:00:28.507Z,10.6
2024-03-16T01:08:46.681Z,10.5
2024-03-16T01:14:58.220Z,10.5
2024-03-16T01:19:05.981Z,10.5
2024-03-16T01:21:09.758Z,10.5
2024-03-16T01:37:46.123Z,10.3
2024-03-16T01:45:00.956Z,10.3
2024-03-16T01:51:15.265Z,10.2
2024-03-16T01:59:30.601Z,10.3
2024-03-16T02:01:34.547Z,10.3
2024-03-16T02:03:38.290Z,10.2
2024-03-16T02:09:52.606Z,10.3
2024-03-16T02:11:56.428Z,10.2
2024-03-16T02:14:00.251Z,10.2
2024-03-16T02:20:15.042Z,10.2
2024-03-16T02:22:18.879Z,10.1
2024-03-16T02:28:30.405Z,10.1
2024-03-16T02:32:38.122Z,10.1
2024-03-16T02:34:44.727Z,10
2024-03-16T02:38:52.532Z,9.9
2024-03-16T02:39:55.846Z,9.8
2024-03-16T02:46:07.353Z,9.9
2024-03-16T02:50:17.904Z,9.9
2024-03-16T02:56:29.240Z,9.8
2024-03-16T03:02:43.558Z,9.6
2024-03-16T03:04:47.406Z,9.6
2024-03-16T03:15:06.567Z,9.4
2024-03-16T03:17:13.221Z,9.2
2024-03-16T03:21:20.880Z,9
2024-03-16T03:23:24.717Z,9
2024-03-16T03:25:28.532Z,8.9
2024-03-16T03:29:36.187Z,8.8
2024-03-16T03:31:42.836Z,8.8
2024-03-16T03:33:46.687Z,8.8
2024-03-16T03:35:50.478Z,8.7
2024-03-16T03:40:18.057Z,8.6
2024-03-16T03:46:32.326Z,8.4
2024-03-16T03:48:36.132Z,8.3
2024-03-16T03:52:43.746Z,8.3
2024-03-16T03:54:47.646Z,8.2
2024-03-16T03:58:57.982Z,8
2024-03-16T04:01:01.970Z,8
2024-03-16T04:09:17.066Z,7.9
2024-03-16T04:13:27.468Z,7.9
2024-03-16T04:17:35.159Z,7.9
2024-03-16T04:19:38.872Z,7.9
2024-03-16T04:23:46.493Z,8
2024-03-16T04:35:11.615Z,8
2024-03-16T04:41:25.828Z,7.9
2024-03-16T04:43:29.617Z,7.9
2024-03-16T04:47:37.229Z,7.9
2024-03-16T04:49:40.997Z,7.9
2024-03-16T04:53:48.584Z,7.9
2024-03-16T04:55:55.186Z,7.9
2024-03-16T04:57:59.050Z,7.8
2024-03-16T05:00:02.805Z,7.8
2024-03-16T05:06:14.125Z,7.7
2024-03-16T05:10:24.589Z,7.7
2024-03-16T05:12:29.881Z,7.7
2024-03-16T05:14:33.558Z,7.7
2024-03-16T05:16:37.353Z,7.7
2024-03-16T05:18:41.178Z,7.7
2024-03-16T05:20:44.907Z,7.7
2024-03-16T05:29:02.897Z,7.6
2024-03-16T05:30:06.200Z,7.5
2024-03-16T05:36:17.570Z,7.5
2024-03-16T05:52:53.515Z,7.2
2024-03-16T06:01:08.701Z,7.2
2024-03-16T06:03:12.401Z,7.2
2024-03-16T06:05:16.196Z,7.2
2024-03-16T06:11:30.391Z,7.1
2024-03-16T06:13:34.135Z,7.1
2024-03-16T06:23:55.826Z,7
2024-03-16T06:25:59.601Z,7
2024-03-16T06:27:02.905Z,7
2024-03-16T06:29:06.952Z,7
2024-03-16T06:31:10.511Z,7
2024-03-16T06:37:24.697Z,7
2024-03-16T06:41:32.189Z,7
2024-03-16T06:43:35.970Z,7.1
2024-03-16T06:47:43.610Z,7.1
2024-03-16T06:49:50.123Z,7.1
2024-03-16T06:53:57.692Z,7.1
2024-03-16T06:56:01.447Z,7.1
2024-03-16T07:06:23.162Z,7
2024-03-16T07:12:34.522Z,7.1
2024-03-16T07:16:42.007Z,7.2
2024-03-16T07:18:48.658Z,7.3
2024-03-16T07:25:25.661Z,7.3
2024-03-16T07:27:29.461Z,7.3
2024-03-16T07:29:33.241Z,7.3
2024-03-16T07:31:39.811Z,7.4
2024-03-16T07:33:43.612Z,7.4
2024-03-16T07:37:51.158Z,7.6
2024-03-16T07:44:02.487Z,7.9
2024-03-16T07:46:09.152Z,7.9
2024-03-16T07:50:16.668Z,8
2024-03-16T07:54:24.265Z,7.7
2024-03-16T07:56:28.044Z,7.7
2024-03-16T08:08:53.635Z,7.9
2024-03-16T08:10:57.426Z,8
2024-03-16T08:19:15.559Z,8
2024-03-16T08:20:18.799Z,8.2
2024-03-16T08:22:22.689Z,8.5
2024-03-16T08:51:22.334Z,8.8
2024-03-16T08:57:36.725Z,9
2024-03-16T09:01:44.399Z,8.9
2024-03-16T09:03:48.132Z,9
2024-03-16T09:05:51.937Z,8.9
2024-03-16T09:19:21.116Z,9
2024-03-16T09:21:24.888Z,9.1
2024-03-16T09:29:43.038Z,9.9
2024-03-16T09:31:46.864Z,9.9
2024-03-16T09:33:50.735Z,9.6
2024-03-16T09:40:05.066Z,9.4
2024-03-16T09:42:08.876Z,9.5
2024-03-16T09:52:28.047Z,10.2
2024-03-16T09:54:34.737Z,9.9
2024-03-16T09:56:38.553Z,9.8
2024-03-16T09:58:42.405Z,9.7
2024-03-16T10:02:50.070Z,9.7
2024-03-16T10:04:53.909Z,9.7
2024-03-16T10:09:04.428Z,9.3
2024-03-16T10:11:08.295Z,9.4
2024-03-16T10:14:15.449Z,9.6
2024-03-16T10:24:37.545Z,10
2024-03-16T10:26:41.351Z,10.2
2024-03-16T10:30:49.068Z,9.9
2024-03-16T10:39:07.225Z,9.6
2024-03-16T10:41:11.095Z,9.6
2024-03-16T10:45:18.789Z,9.8
2024-03-16T10:47:22.620Z,10.1
2024-03-16T10:51:33.153Z,10.5
2024-03-16T11:18:56.758Z,10.4
2024-03-16T11:21:00.551Z,10.3
2024-03-16T11:23:04.409Z,10.2
2024-03-16T11:25:08.481Z,10.1
2024-03-16T11:35:30.484Z,10.3
2024-03-16T11:37:34.228Z,10.1
2024-03-16T11:50:00.271Z,12.2
2024-03-16T11:54:07.900Z,10.7
2024-03-16T11:56:11.742Z,10.8
2024-03-16T12:00:19.474Z,10.7
2024-03-16T12:07:37.217Z,13
2024-03-16T12:09:41.073Z,12.6
2024-03-16T12:11:44.934Z,12.8
2024-03-16T12:13:48.791Z,12.5
2024-03-16T12:20:03.200Z,11.5
2024-03-16T12:24:10.934Z,11.1
2024-03-16T12:30:25.347Z,11.1
2024-03-16T12:36:36.937Z,11.1
2024-03-16T12:42:48.542Z,11.9
2024-03-16T12:44:55.219Z,12.1
2024-03-16T12:49:02.982Z,12.4
2024-03-16T12:51:06.852Z,11.9
2024-03-16T12:53:10.721Z,11.8
2024-03-16T12:55:14.598Z,11.6
2024-03-16T13:01:29.048Z,11.5
2024-03-16T13:14:58.420Z,11.4
2024-03-16T13:25:19.886Z,11.5
2024-03-16T13:27:24.468Z,11.4
2024-03-16T13:50:10.692Z,10.9
2024-03-16T13:56:25.748Z,11.3
2024-03-16T13:58:29.590Z,11.4
2024-03-16T14:00:33.463Z,11.7
2024-03-16T14:05:44.539Z,11.7
2024-03-16T14:07:48.391Z,11.7
2024-03-16T14:09:55.094Z,11.3
2024-03-16T14:14:02.836Z,11.2
2024-03-16T14:26:29.004Z,11.4
2024-03-16T14:28:32.876Z,11.2
2024-03-16T14:32:40.590Z,11.2
2024-03-16T14:34:45.953Z,11.1
2024-03-16T14:38:55.018Z,11.3
2024-03-16T14:49:14.349Z,11.3
2024-03-16T14:51:18.247Z,11.4
2024-03-16T14:55:28.774Z,11.3
2024-03-16T15:00:02.395Z,10.9
2024-03-16T15:02:06.112Z,10.8
2024-03-16T15:04:09.975Z,10.8
2024-03-16T15:06:16.668Z,10.8
2024-03-16T15:08:20.508Z,10.9
2024-03-16T15:12:28.252Z,10.8
2024-03-16T15:14:32.127Z,10.8
2024-03-16T15:16:35.987Z,10.7
2024-03-16T15:22:50.393Z,10.5
2024-03-16T15:29:01.973Z,10.2
2024-03-16T15:41:27.924Z,9.9
2024-03-16T15:43:31.799Z,10
2024-03-16T15:47:39.508Z,10.3
2024-03-16T15:54:57.184Z,10.7
2024-03-16T15:57:01.041Z,10.7
2024-03-16T15:59:04.889Z,10.7
2024-03-16T16:11:30.790Z,10.2
2024-03-16T16:17:45.170Z,10.1
2024-03-16T16:21:52.854Z,10.1
2024-03-16T16:23:56.693Z,10.1
2024-03-16T16:28:04.391Z,10
2024-03-16T16:30:09.684Z,9.9
2024-03-16T16:34:18.727Z,10
2024-03-16T16:42:34.097Z,10.1
2024-03-16T16:46:44.612Z,10
2024-03-16T16:48:48.487Z,9.9
2024-03-16T16:51:55.605Z,9.9
2024-03-16T16:53:59.452Z,9.8
2024-03-16T17:06:26.799Z,9.3
2024-03-16T17:27:12.785Z,9.2
2024-03-16T17:29:14.522Z,9.3
2024-03-16T17:31:18.366Z,9.3
2024-03-16T17:35:26.029Z,9.3
2024-03-16T17:37:29.830Z,9.2
2024-03-16T17:39:33.726Z,9.2
2024-03-16T17:41:37.491Z,9.2
2024-03-16T17:43:44.133Z,9.1
2024-03-16T17:48:55.076Z,8.8
2024-03-16T17:50:58.894Z,8.8
2024-03-16T17:53:02.728Z,8.7
2024-03-16T17:55:06.533Z,8.6
2024-03-16T18:01:20.818Z,8.4
2024-03-16T18:07:32.261Z,8.2
2024-03-16T18:15:50.325Z,7.8
2024-03-16T18:18:01.114Z,7.9
2024-03-16T18:19:57.888Z,7.9
2024-03-16T18:24:05.496Z,7.8
2024-03-16T18:30:19.733Z,7.8
2024-03-16T18:32:23.517Z,7.8
2024-03-16T18:34:27.302Z,7.8
2024-03-16T18:36:31.110Z,7.7
2024-03-16T18:40:41.513Z,7.8
2024-03-16T18:49:22.470Z,7.8
2024-03-16T18:51:26.272Z,7.7
2024-03-16T18:53:32.901Z,7.7
2024-03-16T18:55:36.688Z,7.7
2024-03-16T19:08:02.249Z,7.3
2024-03-16T19:10:06.055Z,7.3
2024-03-16T19:12:09.820Z,7.2
2024-03-16T19:14:13.596Z,7.1
2024-03-16T19:16:17.389Z,7.1
2024-03-16T19:20:24.957Z,6.9
2024-03-16T19:22:31.559Z,6.9
2024-03-16T19:26:39.120Z,6.8
2024-03-16T19:39:04.593Z,6.6
2024-03-16T19:44:15.432Z,6.6
2024-03-16T19:46:19.175Z,6.6
2024-03-16T19:50:29.518Z,6.5
2024-03-16T19:52:33.293Z,6.5
2024-03-16T19:56:40.832Z,6.5
2024-03-16T20:02:52.094Z,6.4
2024-03-16T20:04:58.712Z,6.2
2024-03-16T20:09:06.193Z,6.2
2024-03-16T20:11:09.934Z,6.3
2024-03-16T20:15:17.437Z,6.2
2024-03-16T20:17:21.181Z,6.3
2024-03-16T20:19:27.750Z,6.3
2024-03-16T20:21:31.492Z,6.3
2024-03-16T20:23:35.282Z,6.3
2024-03-16T20:25:39.046Z,6.2
2024-03-16T20:27:42.895Z,6.2
2024-03-16T20:33:57.044Z,6
2024-03-16T20:45:19.345Z,5.9
2024-03-16T21:03:58.533Z,5.5
2024-03-16T21:08:05.986Z,5.4
2024-03-16T21:10:09.702Z,5.4
2024-03-16T21:12:13.431Z,5.4
2024-03-16T21:14:17.247Z,5.4
2024-03-16T21:16:23.781Z,5.4
2024-03-16T21:24:40.796Z,5.4
2024-03-16T21:28:46.094Z,5.3
2024-03-16T21:30:52.652Z,5.1
2024-03-16T21:32:56.350Z,5.2
2024-03-16T21:40:10.974Z,5.1
2024-03-16T21:44:23.800Z,4.9
2024-03-16T21:50:32.437Z,4.9
2024-03-16T21:56:43.559Z,4.8
2024-03-16T21:58:50.102Z,4.7
2024-03-16T22:00:53.805Z,4.7
2024-03-16T22:05:01.219Z,4.6
2024-03-16T22:07:04.895Z,4.6
2024-03-16T22:09:08.613Z,4.5
2024-03-16T22:15:22.529Z,4.4
2024-03-16T22:17:26.205Z,4.3
2024-03-16T22:21:33.585Z,4.3
2024-03-16T22:23:37.285Z,4.2
2024-03-16T22:27:47.480Z,4.2
2024-03-16T22:29:51.190Z,4.2
2024-03-16T22:31:54.874Z,4.2
2024-03-16T22:36:28.099Z,4.1
2024-03-16T22:48:53.195Z,4
2024-03-16T23:05:27.005Z,4
2024-03-16T23:07:30.664Z,4
2024-03-16T23:11:40.850Z,3.9
2024-03-16T23:17:51.856Z,3.9
2024-03-16T23:21:59.251Z,3.9
2024-03-16T23:24:05.673Z,3.9
2024-03-16T23:35:27.261Z,3.8
2024-03-16T23:39:37.431Z,3.7
2024-03-16T23:43:44.767Z,3.8
2024-03-16T23:47:52.106Z,3.7
2024-03-16T23:54:05.889Z,3.6
2024-03-16T23:56:09.581Z,3.7
